Thunder radar more information blitzortung!


Radar de pluja more information rain snow radar


Visita la nostra xarxa de llocs de meteo:

Template documentation
and downloads

And another site



No particular awareness of the weather is required.    There are no Weather-warnings

Pagina Historial Weather Underground text

Diari Resum Juliol 11, 2017 Unitats:  Imperial    Mètric   Tant
« Previous Dia
SegĂźent Dia »
Diari Setmana Mensual Anual Personalitzada
  Maxima: Minima: Media:
Temperatura: 90.9 °F 69.8 °F 81.7 °F
Punt de rosada: 68.7 °F 59.7 °F 65.7 °F
Humitat: 80 % 46 % 60 %
Wind Speed: 13.8 mph 0 mph 5 mph
RĂ fegues de vent: 13.8 mph - -
Vent:- - SE
Pression baro: 30 in 29.8 in -
Precipitacions: 0 in    
Historical Graphs
 
 
Dades de taula per Juliol 11, 2017
Temps Temperatura Punt de rosada Pression baro Vent Wind Speed RĂ fegues de vent Humitat Rainfall Rate (Hourly)
00:00 74.5 °F 59.7 °F 29.9 in East 2.3 mph 2.3 mph 60 % 0 in
00:05 74.3 °F 60.1 °F 29.9 in ESE 2.3 mph 2.3 mph 61 % 0 in
00:10 70.9 °F 63.7 °F 29.9 in NE 2 mph 3 mph 78 % 0 in
00:20 70.9 °F 63.7 °F 29.9 in NE 1 mph 3 mph 78 % 0 in
00:30 70.7 °F 63.5 °F 29.9 in NE 2 mph 2 mph 78 % 0 in
00:40 70.5 °F 63.3 °F 29.9 in Calm   3 mph 78 % 0 in
00:50 70.3 °F 63.1 °F 29.9 in Calm   1 mph 78 % 0 in
01:00 70.2 °F 63 °F 29.9 in Calm   1 mph 78 % 0 in
01:10 70 °F 62.8 °F 29.9 in NE 1 mph   78 % 0 in
01:20 70 °F 63.1 °F 29.9 in ENE 1 mph 2 mph 79 % 0 in
01:30 70 °F 62.8 °F 29.9 in NE 1 mph 1 mph 78 % 0 in
01:40 70 °F 62.8 °F 29.9 in Calm   1 mph 78 % 0 in
01:50 69.8 °F 62.6 °F 29.9 in Calm   1 mph 78 % 0 in
02:00 70 °F 62.8 °F 29.9 in NE 1 mph 2 mph 78 % 0 in
02:10 69.8 °F 62.6 °F 29.9 in NE 2 mph 2 mph 78 % 0 in
02:20 70 °F 62.8 °F 29.9 in NE 1 mph 2 mph 78 % 0 in
02:30 70.3 °F 63.1 °F 29.9 in Calm     78 % 0 in
02:40 70.5 °F 63 °F 29.9 in Calm     77 % 0 in
02:50 70.5 °F 62.6 °F 29.9 in NE 1 mph 2 mph 76 % 0 in
03:00 71.6 °F 63.7 °F 29.9 in Calm     76 % 0 in
03:10 72.3 °F 63.9 °F 29.9 in NE 1 mph 1 mph 75 % 0 in
03:20 72.9 °F 64 °F 29.9 in ENE 1 mph 1 mph 74 % 0 in
03:30 74.1 °F 64.9 °F 29.9 in ESE 1 mph 2 mph 73 % 0 in
03:40 75 °F 65.5 °F 29.9 in East 3 mph 3 mph 72 % 0 in
03:50 75.4 °F 64.6 °F 29.9 in NE 1 mph 3 mph 69 % 0 in
04:00 75.4 °F 64 °F 29.9 in NNE 2 mph 4 mph 68 % 0 in
04:10 75.4 °F 63.7 °F 29.9 in NE 1 mph 4 mph 67 % 0 in
04:20 76.3 °F 64.9 °F 29.9 in NE 1 mph 3 mph 68 % 0 in
04:30 75 °F 63.7 °F 29.9 in Calm   4 mph 68 % 0 in
04:40 75 °F 63.7 °F 29.9 in NNE 2 mph 3 mph 68 % 0 in
04:50 76.3 °F 64.6 °F 29.9 in NNE 1 mph 2 mph 67 % 0 in
05:00 75.7 °F 63.7 °F 29.9 in NNE 1 mph 3 mph 66 % 0 in
05:10 77 °F 63.9 °F 29.9 in NE 1 mph 4 mph 64 % 0 in
05:20 78.1 °F 64.9 °F 29.9 in NNE 1 mph 2 mph 64 % 0 in
10:27 79 °F 65.3 °F 29.9 in SW 2.3 mph 2.3 mph 63 % 0 in
10:28 79 °F 65.3 °F 29.9 in SSW 2.3 mph 2.3 mph 63 % 0 in
10:33 79.5 °F 65.5 °F 29.9 in ENE 2.3 mph 2.3 mph 62 % 0 in
10:38 79 °F 64.8 °F 29.9 in ENE 2.3 mph 2.3 mph 62 % 0 in
10:43 79 °F 64.8 °F 29.9 in NE 2.3 mph 2.4 mph 62 % 0 in
10:48 78.4 °F 64.2 °F 29.9 in ESE 2.3 mph 2.6 mph 62 % 0 in
10:53 79.2 °F 64.9 °F 29.9 in SSE 2.3 mph 2.3 mph 62 % 0 in
10:58 81 °F 65.3 °F 29.9 in SW 1.6 mph 1.6 mph 59 % 0 in
11:03 81.9 °F 65.7 °F 29.9 in ESE 2.3 mph 2.3 mph 58 % 0 in
11:08 81.5 °F 65.3 °F 29.9 in ENE 1.6 mph 1.6 mph 58 % 0 in
11:13 82 °F 65.8 °F 29.9 in ESE 2.3 mph 2.3 mph 58 % 0 in
11:18 82.9 °F 65.7 °F 29.9 in South 3.5 mph 3.5 mph 56 % 0 in
11:23 83.1 °F 65.3 °F 29.9 in SSE 2.4 mph 2.4 mph 55 % 0 in
11:28 83.3 °F 66 °F 29.9 in NE 3.5 mph 3.5 mph 56 % 0 in
11:33 82 °F 64.2 °F 29.9 in NE 2.3 mph 2.3 mph 55 % 0 in
11:38 82.2 °F 64.9 °F 29.9 in NW 2.9 mph 2.9 mph 56 % 0 in
11:43 83.3 °F 65.5 °F 29.9 in SE 2.3 mph 2.3 mph 55 % 0 in
11:48 84.2 °F 65.1 °F 29.9 in ENE 3.5 mph 3.5 mph 53 % 0 in
11:53 85.1 °F 66 °F 29.9 in ESE 2.6 mph 2.6 mph 53 % 0 in
11:58 84.4 °F 64.2 °F 29.9 in ESE 4.6 mph 4.6 mph 51 % 0 in
12:03 85.1 °F 64.9 °F 29.9 in SSE 5.8 mph 5.8 mph 51 % 0 in
12:08 85.6 °F 65.5 °F 29.9 in East 4.6 mph 4.6 mph 51 % 0 in
12:13 86.5 °F 66.7 °F 29.9 in SE 3.5 mph 3.5 mph 52 % 0 in
12:18 87.1 °F 66.2 °F 29.9 in East 3.3 mph 3.3 mph 50 % 0 in
12:23 86.4 °F 65.5 °F 29.9 in SW 3.6 mph 3.6 mph 50 % 0 in
12:28 86.2 °F 64.8 °F 29.9 in ESE 6 mph 6 mph 49 % 0 in
12:33 86 °F 64.6 °F 29.9 in SSE 5.8 mph 5.8 mph 49 % 0 in
12:38 87.1 °F 64.9 °F 29.9 in South 4.6 mph 4.6 mph 48 % 0 in
12:43 87.8 °F 65.7 °F 29.9 in East 2.4 mph 2.4 mph 48 % 0 in
12:48 86.7 °F 64.8 °F 29.9 in ESE 4.6 mph 4.6 mph 48 % 0 in
12:53 86.5 °F 65.1 °F 29.9 in East 6 mph 6 mph 49 % 0 in
12:58 86.5 °F 64.6 °F 29.9 in East 4.6 mph 4.6 mph 48 % 0 in
13:03 87.8 °F 65.1 °F 29.9 in ESE 3.5 mph 3.5 mph 47 % 0 in
13:08 87.6 °F 66 °F 29.9 in ESE 9.2 mph 9.2 mph 49 % 0 in
13:13 85.8 °F 64.6 °F 29.9 in ESE 10.4 mph 10.4 mph 49 % 0 in
13:18 84.9 °F 64.2 °F 29.9 in NNE 6.9 mph 6.9 mph 50 % 0 in
13:23 84.6 °F 64.4 °F 29.9 in SE 9.2 mph 9.2 mph 51 % 0 in
13:28 84.4 °F 64.2 °F 29.9 in SE 10 mph 10 mph 51 % 0 in
13:33 84.4 °F 64.2 °F 29.9 in SE 11.5 mph 11.5 mph 51 % 0 in
13:38 84.4 °F 64.2 °F 29.9 in East 10 mph 10 mph 51 % 0 in
13:43 84.6 °F 64.9 °F 29.9 in ESE 9.2 mph 9.2 mph 52 % 0 in
13:48 84.6 °F 64.4 °F 29.9 in NNE 5.8 mph 5.8 mph 51 % 0 in
13:53 84.4 °F 64.8 °F 29.9 in ESE 8.1 mph 8.1 mph 52 % 0 in
13:58 84.7 °F 65.1 °F 29.9 in East 10.4 mph 10.4 mph 52 % 0 in
14:03 85.8 °F 66.2 °F 29.9 in ESE 5.6 mph 5.6 mph 52 % 0 in
14:08 85.3 °F 65.1 °F 29.9 in East 9.2 mph 9.2 mph 51 % 0 in
14:13 85.8 °F 65.7 °F 29.9 in ESE 5.8 mph 5.8 mph 51 % 0 in
14:18 84.9 °F 64.8 °F 29.9 in ESE 10.7 mph 10.7 mph 51 % 0 in
14:23 85.1 °F 64.9 °F 29.9 in ESE 10.4 mph 10.4 mph 51 % 0 in
14:28 85.5 °F 65.3 °F 29.9 in East 8.1 mph 8.1 mph 51 % 0 in
14:33 85.6 °F 65.5 °F 29.9 in ESE 9.2 mph 9.2 mph 51 % 0 in
14:38 85.5 °F 65.3 °F 29.9 in ESE 9.2 mph 9.2 mph 51 % 0 in
14:43 85.6 °F 65.5 °F 29.9 in ESE 8.1 mph 8.1 mph 51 % 0 in
14:48 85.3 °F 65.1 °F 29.9 in ENE 9.2 mph 9.2 mph 51 % 0 in
14:53 85.3 °F 65.1 °F 29.9 in SE 6.9 mph 6.9 mph 51 % 0 in
14:58 84.9 °F 64.8 °F 29.9 in ESE 8.1 mph 8.1 mph 51 % 0 in
15:03 86 °F 65.8 °F 29.9 in ENE 8.7 mph 8.7 mph 51 % 0 in
15:08 85.6 °F 65.5 °F 29.9 in ESE 8.1 mph 8.1 mph 51 % 0 in
15:13 84.9 °F 65.3 °F 29.9 in ESE 11.5 mph 11.5 mph 52 % 0 in
15:18 85.5 °F 65.8 °F 29.9 in South 9.2 mph 9.2 mph 52 % 0 in
15:23 87.3 °F 67.5 °F 29.9 in SE 5.8 mph 5.8 mph 52 % 0 in
15:28 87.3 °F 66.4 °F 29.9 in South 3.5 mph 4.3 mph 50 % 0 in
15:33 86.9 °F 66 °F 29.9 in ESE 13.8 mph 13.8 mph 50 % 0 in
15:38 86.9 °F 66.6 °F 29.9 in SSE 7.4 mph 7.4 mph 51 % 0 in
15:43 85.6 °F 65.5 °F 29.9 in ESE 11.5 mph 11.5 mph 51 % 0 in
15:48 86.4 °F 66 °F 29.9 in East 6.4 mph 6.4 mph 51 % 0 in
15:53 86.7 °F 66.4 °F 29.9 in East 5.8 mph 5.8 mph 51 % 0 in
15:58 87.6 °F 66.7 °F 29.9 in ENE 4.6 mph 4.6 mph 50 % 0 in
16:03 88.5 °F 66.4 °F 29.9 in ESE 6.4 mph 6.4 mph 48 % 0 in
16:08 86.9 °F 66 °F 29.9 in East 7.8 mph 7.8 mph 50 % 0 in
16:13 86.7 °F 65.8 °F 29.9 in South 6.9 mph 6.9 mph 50 % 0 in
16:18 88.3 °F 66.2 °F 29.9 in East 8.1 mph 8.1 mph 48 % 0 in
16:23 88.9 °F 66 °F 29.9 in South 3.6 mph 3.6 mph 47 % 0 in
16:28 87.8 °F 66.4 °F 29.9 in South 3.5 mph 3.5 mph 49 % 0 in
16:33 88.3 °F 66.2 °F 29.9 in ENE 3.5 mph 3.5 mph 48 % 0 in
16:38 87.3 °F 65.8 °F 29.9 in South 6.9 mph 6.9 mph 49 % 0 in
16:43 88.2 °F 66.6 °F 29.9 in East 4.6 mph 4.6 mph 49 % 0 in
16:48 88.5 °F 66.4 °F 29.9 in South 5.8 mph 5.8 mph 48 % 0 in
16:53 88.7 °F 66.6 °F 29.9 in South 4.6 mph 4.6 mph 48 % 0 in
16:58 88.9 °F 66.7 °F 29.9 in SSE 5.6 mph 5.6 mph 48 % 0 in
17:03 88.7 °F 66.6 °F 29.9 in ESE 5.8 mph 5.8 mph 48 % 0 in
17:08 88.7 °F 66.6 °F 29.9 in South 10.4 mph 10.4 mph 48 % 0 in
17:13 88.5 °F 66.4 °F 29.9 in East 6.9 mph 6.9 mph 48 % 0 in
17:18 89.2 °F 66.9 °F 29.9 in SSE 4.6 mph 4.6 mph 48 % 0 in
17:23 90.9 °F 67.8 °F 29.9 in WSW 6.2 mph 6.2 mph 47 % 0 in
17:28 90.7 °F 67.6 °F 29.9 in NW 4.6 mph 4.6 mph 47 % 0 in
17:33 90.7 °F 67.1 °F 29.9 in SSW 7.8 mph 7.8 mph 46 % 0 in
17:38 90.1 °F 66.6 °F 29.9 in SSW 5.8 mph 5.8 mph 46 % 0 in
17:43 90 °F 66.4 °F 29.9 in SSW 5.8 mph 5.8 mph 46 % 0 in
17:48 90.5 °F 66.9 °F 29.9 in SW 5.9 mph 5.9 mph 46 % 0 in
17:53 89.2 °F 66.4 °F 29.9 in SSW 9.2 mph 9.2 mph 47 % 0 in
17:58 89.4 °F 66.6 °F 29.9 in WSW 6.9 mph 6.9 mph 47 % 0 in
18:03 89.2 °F 66.4 °F 29.9 in SW 6.9 mph 6.9 mph 47 % 0 in
18:08 88.9 °F 66 °F 29.9 in SSW 9.2 mph 9.2 mph 47 % 0 in
18:13 88.9 °F 66 °F 29.9 in SW 9.7 mph 9.7 mph 47 % 0 in
18:18 88.3 °F 65.7 °F 29.9 in SSE 8.1 mph 8.1 mph 47 % 0 in
18:23 88.3 °F 66.2 °F 29.9 in SSW 11.5 mph 11.5 mph 48 % 0 in
18:25 87.8 °F 65.7 °F 29.9 in SW 9.2 mph 9.2 mph 48 % 0 in
18:30 87.8 °F 65.7 °F 29.9 in WSW 3.5 mph 3.5 mph 48 % 0 in
18:35 88 °F 65.8 °F 29.9 in SSW 9.2 mph 9.2 mph 48 % 0 in
18:36 88 °F 65.8 °F 29.9 in SW 9.2 mph 9.2 mph 48 % 0 in
18:41 87.3 °F 65.8 °F 29.9 in SW 9.2 mph 9.2 mph 49 % 0 in
18:46 87.3 °F 66.4 °F 29.9 in SW 4.6 mph 4.6 mph 50 % 0 in
18:51 87.1 °F 66.2 °F 29.9 in SW 10.4 mph 10.4 mph 50 % 0 in
18:56 86 °F 65.1 °F 29.9 in SSW 9.2 mph 9.2 mph 50 % 0 in
19:01 86.7 °F 65.8 °F 29.9 in SW 5.6 mph 5.6 mph 50 % 0 in
19:06 86.4 °F 66 °F 29.9 in SW 8.1 mph 8.1 mph 51 % 0 in
19:11 86.4 °F 66 °F 29.9 in WSW 8.1 mph 8.1 mph 51 % 0 in
19:16 86.4 °F 66 °F 29.9 in SW 5.8 mph 5.8 mph 51 % 0 in
19:21 85.5 °F 65.8 °F 29.9 in SW 8.1 mph 8.1 mph 52 % 0 in
19:26 85.1 °F 65.5 °F 29.9 in SW 4.6 mph 4.6 mph 52 % 0 in
19:31 84.7 °F 65.7 °F 29.9 in SSW 8.1 mph 8.1 mph 53 % 0 in
19:36 84.2 °F 65.8 °F 29.9 in WSW 5.8 mph 5.8 mph 54 % 0 in
19:41 84.2 °F 65.8 °F 29.9 in SSW 5.8 mph 5.8 mph 54 % 0 in
19:46 83.7 °F 66.4 °F 29.9 in SW 6.2 mph 6.2 mph 56 % 0 in
19:51 83.3 °F 66 °F 29.9 in SSW 5.8 mph 5.8 mph 56 % 0 in
19:56 83.1 °F 66.4 °F 29.9 in WSW 8.1 mph 8.1 mph 57 % 0 in
20:01 82.9 °F 66 °F 29.9 in SW 5.8 mph 5.8 mph 57 % 0 in
20:06 82.8 °F 66.6 °F 29.9 in SW 8.1 mph 8.1 mph 58 % 0 in
20:11 82.6 °F 66.7 °F 29.8 in WSW 6.9 mph 6.9 mph 59 % 0 in
20:16 82 °F 66.4 °F 29.8 in West 8.1 mph 8.1 mph 59 % 0 in
20:21 81.9 °F 66.6 °F 29.8 in WSW 5.8 mph 5.8 mph 60 % 0 in
20:26 81.5 °F 66.7 °F 29.9 in South 4.6 mph 4.6 mph 61 % 0 in
20:31 81.3 °F 66.6 °F 29.9 in WSW 8.1 mph 8.1 mph 61 % 0 in
20:36 80.8 °F 66.6 °F 29.9 in SSW 4.6 mph 4.6 mph 62 % 0 in
20:41 80.6 °F 66.4 °F 29.9 in South 6.9 mph 6.9 mph 62 % 0 in
20:46 80.4 °F 66.7 °F 29.9 in SW 3.3 mph 3.3 mph 63 % 0 in
20:51 79.9 °F 66.6 °F 29.9 in SW 4.6 mph 4.6 mph 64 % 0 in
20:56 79.7 °F 66.9 °F 29.9 in WSW 4.6 mph 4.6 mph 65 % 0 in
21:01 79.5 °F 66.7 °F 29.9 in WSW 3.5 mph 3.5 mph 65 % 0 in
21:06 79.3 °F 66.6 °F 29.9 in WSW 4.3 mph 4.3 mph 65 % 0 in
21:11 79.2 °F 66.4 °F 29.9 in SSE 2.3 mph 2.3 mph 65 % 0 in
21:16 78.8 °F 66.6 °F 29.9 in WSW 2.2 mph   66 % 0 in
21:21 78.6 °F 66.4 °F 29.9 in SW 2.6 mph 2.6 mph 66 % 0 in
21:26 78.4 °F 66 °F 29.9 in WSW 2.4 mph 2.4 mph 66 % 0 in
21:31 78.3 °F 66 °F 29.9 in SW 3.5 mph 3.5 mph 66 % 0 in
21:36 78.1 °F 66.7 °F 29.9 in WSW 2.3 mph   68 % 0 in
21:41 78.1 °F 66.7 °F 29.9 in Calm     68 % 0 in
21:46 77.9 °F 66.6 °F 29.9 in ESE 1.4 mph   68 % 0 in
21:51 77.7 °F 66.7 °F 29.9 in ENE 1.6 mph 1.6 mph 69 % 0 in
21:56 77.5 °F 66.6 °F 29.9 in ENE 1.2 mph   69 % 0 in
22:01 77.5 °F 66.9 °F 29.9 in Calm     70 % 0 in
22:06 77.5 °F 66.9 °F 29.9 in ESE 4.3 mph 4.3 mph 70 % 0 in
22:11 77.2 °F 66.9 °F 29.9 in ESE 4.3 mph 4.3 mph 71 % 0 in
22:16 76.8 °F 67.5 °F 29.9 in ENE 8.1 mph 8.1 mph 73 % 0 in
22:21 76.6 °F 67.6 °F 29.9 in ESE 5.8 mph 5.8 mph 74 % 0 in
22:26 76.5 °F 67.6 °F 30 in SE 5.8 mph 5.8 mph 74 % 0 in
22:31 76.3 °F 67.8 °F 30 in East 4.6 mph 4.6 mph 75 % 0 in
22:36 76.3 °F 67.8 °F 30 in East 6.9 mph 6.9 mph 75 % 0 in
22:41 76.1 °F 68 °F 30 in ESE 4.6 mph 4.6 mph 76 % 0 in
22:46 76.1 °F 68 °F 30 in ESE 6.9 mph 6.9 mph 76 % 0 in
22:51 76.1 °F 68 °F 30 in East 3.5 mph 3.5 mph 76 % 0 in
22:56 75.9 °F 68.2 °F 30 in ENE 3.5 mph 3.5 mph 77 % 0 in
23:01 75.9 °F 68.2 °F 30 in ESE 4.6 mph 4.6 mph 77 % 0 in
23:06 75.9 °F 68.2 °F 30 in ENE 5.8 mph 5.8 mph 77 % 0 in
23:11 75.9 °F 68.2 °F 30 in ENE 6.9 mph 6.9 mph 77 % 0 in
23:16 75.7 °F 68.4 °F 30 in NNE 7.1 mph 7.1 mph 78 % 0 in
23:21 75.7 °F 68 °F 30 in ENE 5.8 mph 5.8 mph 77 % 0 in
23:26 75.6 °F 68.2 °F 30 in NE 4.6 mph 4.6 mph 78 % 0 in
23:31 75.6 °F 68.2 °F 30 in ESE 4.6 mph 4.6 mph 78 % 0 in
23:36 75.6 °F 68.5 °F 30 in ESE 4.6 mph 4.6 mph 79 % 0 in
23:41 75.6 °F 68.5 °F 30 in ENE 3.5 mph 3.5 mph 79 % 0 in
23:46 75.6 °F 68.5 °F 30 in East 3.5 mph 3.5 mph 79 % 0 in
23:51 75.6 °F 68.5 °F 30 in East 5.8 mph 5.8 mph 79 % 0 in
23:56 75.4 °F 68.7 °F 30 in ENE 5.8 mph 5.8 mph 80 % 0 in
Meteo Sesrovires
Elogis d' Weather Underground - 3.5 mb

Guio original per  Jim McMurry - jmcmurry@mwt.net Adaptat per a la plantilla per  Wim van der Kuil - Leuven-Template.eu

Trobareu la nostra informacio del temps tambe a:

Weather Underground

AWEKAS